This is the latest recevied weather packets stored in our database for station/object JI8TEY-15. If no packets are shown the sender has not sent any weather packets the latest 10 day(s).
| Time | Temp. | Humidity | Pressure | Rain* | Wind** | Luminosity | Snow |
|---|---|---|---|---|---|---|---|
| 1788559848 | 15° C | 82% | 1013 hPa | 0 mm | - | - | - |
| 1788552648 | 11.67° C | 85% | 1013 hPa | 0 mm | - | - | - |
| 1788549048 | 11.67° C | 85% | 1012 hPa | 0 mm | - | - | - |
| 1788545447 | 12.22° C | 84% | 1012 hPa | 0 mm | - | - | - |
| 1788541847 | 12.78° C | 83% | 1012 hPa | 0 mm | - | - | - |
| 1788538246 | 13.33° C | 82% | 1012 hPa | 0 mm | - | - | - |
| 1788534647 | 13.89° C | 81% | 1012 hPa | 0 mm | - | - | - |
| 1788531047 | 14.44° C | 81% | 1012 hPa | 0 mm | - | - | - |
| 1788527447 | 15.56° C | 80% | 1012 hPa | 0 mm | - | - | - |
| 1788523848 | 16.11° C | 78% | 1012 hPa | 0 mm | - | - | - |
| 1788520248 | 17.22° C | 73% | 1011 hPa | 0 mm | - | - | - |
| 1788516648 | 18.33° C | 70% | 1011 hPa | 0 mm | - | - | - |
| 1788513047 | 17.78° C | 69% | 1010 hPa | 0 mm | - | - | - |
| 1788509448 | 18.89° C | 66% | 1011 hPa | 0 mm | - | - | - |
| 1788505848 | 19.44° C | 62% | 1010 hPa | 0 mm | - | - | - |
| 1788502247 | 20° C | 63% | 1009 hPa | 0 mm | - | - | - |
| 1788498648 | 20° C | 63% | 1010 hPa | 0 mm | - | - | - |
| 1788495048 | 19.44° C | 68% | 1009 hPa | 0 mm | - | - | - |
| 1788491447 | 18.89° C | 73% | 1009 hPa | 0 mm | - | - | - |
| 1788487848 | 18.89° C | 77% | 1008 hPa | 0 mm | - | - | - |
| 1788484248 | 18.33° C | 84% | 1007 hPa | 0 mm | - | - | - |
| 1788466247 | 17.78° C | 93% | 1007 hPa | 0 mm | - | - | - |
| 1788433847 | 19.44° C | 86% | 1004 hPa | 0 mm | - | - | - |
| 1788430248 | 19.44° C | 84% | 1004 hPa | 0 mm | - | - | - |
| 1788426646 | 20° C | 83% | 1003 hPa | 0 mm | - | - | - |
* Rain latest hour (hover to see other rain measurements)
** Current wind speed in m/s (hover to see current wind gust speed)